createdAt,value
2022-12-22T00:03:10.772Z,30.50
2022-12-22T00:15:11.017Z,29.90
2022-12-22T00:27:11.480Z,30.90
2022-12-22T00:39:11.936Z,29.90
2022-12-22T00:51:12.372Z,30.80
2022-12-22T01:03:12.925Z,32.00
2022-12-22T01:15:13.298Z,29.40
2022-12-22T01:27:13.749Z,32.20
2022-12-22T01:39:14.168Z,30.80
2022-12-22T01:51:14.619Z,30.60
2022-12-22T02:03:15.126Z,30.40
2022-12-22T02:15:15.549Z,32.30
2022-12-22T02:27:16.005Z,29.60
2022-12-22T02:39:16.430Z,30.50
2022-12-22T02:51:16.897Z,32.20
2022-12-22T03:03:17.533Z,30.90
2022-12-22T03:15:17.795Z,30.10
2022-12-22T03:27:18.276Z,31.40
2022-12-22T03:39:18.664Z,31.70
2022-12-22T03:51:19.134Z,30.70
2022-12-22T04:03:19.679Z,55.80
2022-12-22T04:15:20.065Z,36.70
2022-12-22T04:27:20.495Z,44.80
2022-12-22T04:39:20.974Z,33.10
2022-12-22T04:51:21.371Z,34.40
2022-12-22T05:03:21.914Z,36.10
2022-12-22T05:15:22.320Z,34.30
2022-12-22T05:27:22.719Z,33.70
2022-12-22T05:39:23.232Z,35.40
2022-12-22T05:51:23.702Z,35.10
2022-12-22T06:03:24.145Z,51.40
2022-12-22T06:15:24.579Z,48.30
2022-12-22T06:27:25.031Z,41.00
2022-12-22T06:39:25.487Z,40.60
2022-12-22T06:51:25.933Z,33.70
2022-12-22T07:03:26.480Z,36.40
2022-12-22T07:15:26.821Z,33.80
2022-12-22T07:27:27.315Z,34.80
2022-12-22T07:39:27.736Z,29.30
2022-12-22T07:51:28.170Z,30.70
2022-12-22T08:03:28.772Z,30.00
2022-12-22T08:15:29.120Z,33.60
2022-12-22T08:27:29.527Z,28.70
2022-12-22T08:39:29.959Z,30.90
2022-12-22T08:51:30.404Z,28.70
2022-12-22T09:03:30.965Z,26.60
2022-12-22T09:15:31.329Z,24.40
2022-12-22T09:27:31.804Z,22.50
2022-12-22T09:39:32.249Z,21.30
2022-12-22T09:51:32.716Z,25.90
2022-12-22T10:03:33.216Z,25.20
2022-12-22T10:15:33.563Z,23.00
2022-12-22T10:27:36.198Z,22.60
2022-12-22T10:39:34.587Z,21.80
2022-12-22T10:51:34.966Z,21.90
2022-12-22T11:03:35.519Z,21.80
2022-12-22T11:15:35.878Z,27.90
2022-12-22T11:27:40.771Z,24.80
2022-12-22T11:39:36.766Z,22.50
2022-12-22T11:51:37.216Z,20.10
2022-12-22T12:03:37.844Z,21.60
2022-12-22T12:15:38.219Z,27.60
2022-12-22T12:27:38.551Z,31.00
2022-12-22T12:39:39.015Z,31.70
2022-12-22T12:51:39.506Z,32.10
2022-12-22T13:04:02.550Z,33.80
2022-12-22T13:15:40.515Z,39.10
2022-12-22T13:27:40.851Z,71.30
2022-12-22T13:39:41.278Z,40.30
2022-12-22T13:51:41.778Z,38.20
2022-12-22T14:03:59.608Z,38.70
2022-12-22T14:15:42.651Z,49.80
2022-12-22T14:27:43.105Z,53.20
2022-12-22T14:39:43.554Z,41.80
2022-12-22T14:51:43.996Z,51.00
2022-12-22T15:03:44.596Z,43.70
2022-12-22T15:15:44.882Z,41.50
2022-12-22T15:27:45.394Z,60.20
2022-12-22T15:39:45.844Z,76.20
2022-12-22T15:51:46.285Z,45.90
2022-12-22T16:03:46.904Z,44.10
2022-12-22T16:15:47.281Z,53.30
2022-12-22T16:27:47.621Z,42.00
2022-12-22T16:39:48.078Z,30.60
2022-12-22T16:51:48.531Z,23.80
2022-12-22T17:03:49.058Z,23.50
2022-12-22T17:15:49.463Z,26.10
2022-12-22T17:27:49.888Z,46.40
2022-12-22T17:39:50.398Z,33.30
2022-12-22T17:51:50.907Z,25.10
2022-12-22T18:03:51.328Z,28.00
2022-12-22T18:15:51.754Z,44.70
2022-12-22T18:27:52.131Z,43.50
2022-12-22T18:39:52.692Z,53.40
2022-12-22T18:51:53.082Z,35.50
2022-12-22T19:03:53.481Z,31.40
2022-12-22T19:15:53.992Z,34.70
2022-12-22T19:27:54.427Z,36.60
2022-12-22T19:39:54.856Z,39.60
2022-12-22T19:51:55.306Z,35.30
2022-12-22T20:03:55.773Z,33.60
2022-12-22T20:15:56.199Z,38.90
2022-12-22T20:27:56.670Z,39.90
2022-12-22T20:39:57.146Z,43.00
2022-12-22T20:51:57.611Z,39.30
2022-12-22T21:03:58.126Z,39.90
2022-12-22T21:15:58.477Z,41.90
2022-12-22T21:27:58.887Z,41.60
2022-12-22T21:39:59.380Z,42.20
2022-12-22T21:51:59.867Z,34.80
2022-12-22T22:04:00.353Z,36.50
2022-12-22T22:16:00.763Z,35.80
2022-12-22T22:28:01.149Z,26.80
2022-12-22T22:40:01.662Z,25.90
2022-12-22T22:52:02.072Z,21.80
2022-12-22T23:04:02.651Z,23.30
2022-12-22T23:16:03.108Z,22.90
2022-12-22T23:28:03.461Z,21.40
2022-12-22T23:40:25.608Z,21.00
2022-12-22T23:52:04.363Z,22.10
